sensor_id;sensor_type;location;lat;lon;timestamp;P1;durP1;ratioP1;P2;durP2;ratioP2
52854;SDS011;38719;51.418;7.286;2023-04-24T00:01:59;1.70;;;1.60;;
52854;SDS011;38719;51.418;7.286;2023-04-24T00:04:27;1.50;;;1.40;;
52854;SDS011;38719;51.418;7.286;2023-04-24T00:06:55;2.45;;;1.42;;
52854;SDS011;38719;51.418;7.286;2023-04-24T00:09:24;1.70;;;1.60;;
52854;SDS011;38719;51.418;7.286;2023-04-24T00:11:52;1.60;;;1.50;;
52854;SDS011;38719;51.418;7.286;2023-04-24T00:14:19;2.45;;;1.98;;
52854;SDS011;38719;51.418;7.286;2023-04-24T00:16:47;3.95;;;1.85;;
52854;SDS011;38719;51.418;7.286;2023-04-24T00:19:14;2.13;;;1.95;;
52854;SDS011;38719;51.418;7.286;2023-04-24T00:21:42;5.00;;;2.00;;
52854;SDS011;38719;51.418;7.286;2023-04-24T00:24:10;1.70;;;1.60;;
52854;SDS011;38719;51.418;7.286;2023-04-24T00:26:39;2.13;;;2.00;;
52854;SDS011;38719;51.418;7.286;2023-04-24T00:29:06;2.83;;;1.90;;
52854;SDS011;38719;51.418;7.286;2023-04-24T00:31:34;2.38;;;2.00;;
52854;SDS011;38719;51.418;7.286;2023-04-24T00:34:02;2.33;;;1.90;;
52854;SDS011;38719;51.418;7.286;2023-04-24T00:36:29;2.35;;;2.10;;
52854;SDS011;38719;51.418;7.286;2023-04-24T00:38:57;2.75;;;1.92;;
52854;SDS011;38719;51.418;7.286;2023-04-24T00:41:24;2.30;;;2.00;;
52854;SDS011;38719;51.418;7.286;2023-04-24T00:43:54;1.75;;;1.65;;
52854;SDS011;38719;51.418;7.286;2023-04-24T00:46:21;2.20;;;2.00;;
52854;SDS011;38719;51.418;7.286;2023-04-24T00:48:49;2.10;;;2.00;;
52854;SDS011;38719;51.418;7.286;2023-04-24T00:51:17;2.53;;;2.28;;
52854;SDS011;38719;51.418;7.286;2023-04-24T00:53:44;2.30;;;2.10;;
52854;SDS011;38719;51.418;7.286;2023-04-24T00:56:12;10.98;;;2.30;;
52854;SDS011;38719;51.418;7.286;2023-04-24T00:58:40;2.22;;;2.03;;
52854;SDS011;38719;51.418;7.286;2023-04-24T01:01:10;2.25;;;2.03;;
52854;SDS011;38719;51.418;7.286;2023-04-24T01:03:38;3.22;;;2.17;;
52854;SDS011;38719;51.418;7.286;2023-04-24T01:06:07;2.95;;;2.30;;
52854;SDS011;38719;51.418;7.286;2023-04-24T01:08:36;2.72;;;2.45;;
52854;SDS011;38719;51.418;7.286;2023-04-24T01:11:05;2.80;;;2.20;;
52854;SDS011;38719;51.418;7.286;2023-04-24T01:13:33;2.33;;;2.13;;
52854;SDS011;38719;51.418;7.286;2023-04-24T01:16:01;2.40;;;2.10;;
52854;SDS011;38719;51.418;7.286;2023-04-24T01:18:31;4.88;;;2.58;;
52854;SDS011;38719;51.418;7.286;2023-04-24T01:20:59;3.40;;;2.50;;
52854;SDS011;38719;51.418;7.286;2023-04-24T01:23:32;2.75;;;2.50;;
52854;SDS011;38719;51.418;7.286;2023-04-24T01:25:59;3.83;;;2.15;;
52854;SDS011;38719;51.418;7.286;2023-04-24T01:28:27;2.45;;;2.25;;
52854;SDS011;38719;51.418;7.286;2023-04-24T01:30:54;4.65;;;2.45;;
52854;SDS011;38719;51.418;7.286;2023-04-24T01:33:23;3.08;;;2.20;;
52854;SDS011;38719;51.418;7.286;2023-04-24T01:35:51;4.78;;;2.78;;
52854;SDS011;38719;51.418;7.286;2023-04-24T01:38:19;3.22;;;2.20;;
52854;SDS011;38719;51.418;7.286;2023-04-24T01:40:47;3.88;;;2.30;;
52854;SDS011;38719;51.418;7.286;2023-04-24T01:43:16;4.03;;;2.70;;
52854;SDS011;38719;51.418;7.286;2023-04-24T01:45:44;2.60;;;2.40;;
52854;SDS011;38719;51.418;7.286;2023-04-24T01:48:12;5.13;;;2.70;;
52854;SDS011;38719;51.418;7.286;2023-04-24T01:50:40;3.47;;;2.58;;
52854;SDS011;38719;51.418;7.286;2023-04-24T01:53:07;2.80;;;2.40;;
52854;SDS011;38719;51.418;7.286;2023-04-24T01:55:35;4.18;;;2.40;;
52854;SDS011;38719;51.418;7.286;2023-04-24T01:58:04;3.30;;;2.38;;
52854;SDS011;38719;51.418;7.286;2023-04-24T02:00:32;4.45;;;2.60;;
52854;SDS011;38719;51.418;7.286;2023-04-24T02:03:00;5.88;;;3.15;;
52854;SDS011;38719;51.418;7.286;2023-04-24T02:05:28;3.13;;;2.20;;
52854;SDS011;38719;51.418;7.286;2023-04-24T02:07:55;8.90;;;3.05;;
52854;SDS011;38719;51.418;7.286;2023-04-24T02:10:23;3.10;;;2.80;;
52854;SDS011;38719;51.418;7.286;2023-04-24T02:12:51;4.28;;;3.25;;
52854;SDS011;38719;51.418;7.286;2023-04-24T02:15:20;3.92;;;3.20;;
52854;SDS011;38719;51.418;7.286;2023-04-24T02:17:47;5.93;;;3.92;;
52854;SDS011;38719;51.418;7.286;2023-04-24T02:20:15;5.00;;;3.83;;
52854;SDS011;38719;51.418;7.286;2023-04-24T02:22:43;5.28;;;4.10;;
52854;SDS011;38719;51.418;7.286;2023-04-24T02:25:11;4.72;;;4.22;;
52854;SDS011;38719;51.418;7.286;2023-04-24T02:27:38;6.00;;;4.00;;
52854;SDS011;38719;51.418;7.286;2023-04-24T02:30:06;6.00;;;4.50;;
52854;SDS011;38719;51.418;7.286;2023-04-24T02:32:36;5.65;;;4.22;;
52854;SDS011;38719;51.418;7.286;2023-04-24T02:35:03;5.88;;;4.10;;
52854;SDS011;38719;51.418;7.286;2023-04-24T02:37:32;7.13;;;4.55;;
52854;SDS011;38719;51.418;7.286;2023-04-24T02:39:59;12.63;;;4.80;;
52854;SDS011;38719;51.418;7.286;2023-04-24T02:42:27;9.82;;;5.15;;
52854;SDS011;38719;51.418;7.286;2023-04-24T02:44:54;7.68;;;4.80;;
52854;SDS011;38719;51.418;7.286;2023-04-24T02:47:22;8.85;;;5.07;;
52854;SDS011;38719;51.418;7.286;2023-04-24T02:49:50;8.85;;;5.63;;
52854;SDS011;38719;51.418;7.286;2023-04-24T02:52:18;7.97;;;5.32;;
52854;SDS011;38719;51.418;7.286;2023-04-24T02:54:45;7.70;;;5.57;;
52854;SDS011;38719;51.418;7.286;2023-04-24T02:57:13;7.03;;;5.75;;
52854;SDS011;38719;51.418;7.286;2023-04-24T02:59:41;8.40;;;5.40;;
52854;SDS011;38719;51.418;7.286;2023-04-24T03:02:09;8.98;;;5.70;;
52854;SDS011;38719;51.418;7.286;2023-04-24T03:04:37;10.20;;;5.88;;
52854;SDS011;38719;51.418;7.286;2023-04-24T03:07:07;10.52;;;6.00;;
52854;SDS011;38719;51.418;7.286;2023-04-24T03:09:35;9.43;;;6.25;;
52854;SDS011;38719;51.418;7.286;2023-04-24T03:12:02;9.77;;;6.50;;
52854;SDS011;38719;51.418;7.286;2023-04-24T03:14:30;12.98;;;6.55;;
52854;SDS011;38719;51.418;7.286;2023-04-24T03:16:57;10.00;;;6.18;;
52854;SDS011;38719;51.418;7.286;2023-04-24T03:19:25;10.80;;;6.43;;
52854;SDS011;38719;51.418;7.286;2023-04-24T03:21:53;12.25;;;6.78;;
52854;SDS011;38719;51.418;7.286;2023-04-24T03:24:22;11.43;;;6.93;;
52854;SDS011;38719;51.418;7.286;2023-04-24T03:26:49;12.18;;;8.02;;
52854;SDS011;38719;51.418;7.286;2023-04-24T03:29:17;10.80;;;7.40;;
52854;SDS011;38719;51.418;7.286;2023-04-24T03:31:44;12.93;;;7.15;;
52854;SDS011;38719;51.418;7.286;2023-04-24T03:34:12;12.85;;;7.70;;
52854;SDS011;38719;51.418;7.286;2023-04-24T03:36:39;10.95;;;7.75;;
52854;SDS011;38719;51.418;7.286;2023-04-24T03:39:07;16.77;;;8.55;;
52854;SDS011;38719;51.418;7.286;2023-04-24T03:41:35;16.42;;;8.10;;
52854;SDS011;38719;51.418;7.286;2023-04-24T03:44:03;12.07;;;8.07;;
52854;SDS011;38719;51.418;7.286;2023-04-24T03:46:30;14.20;;;7.57;;
52854;SDS011;38719;51.418;7.286;2023-04-24T03:48:58;16.80;;;8.77;;
52854;SDS011;38719;51.418;7.286;2023-04-24T03:51:25;14.35;;;8.77;;
52854;SDS011;38719;51.418;7.286;2023-04-24T03:53:54;13.85;;;8.40;;
52854;SDS011;38719;51.418;7.286;2023-04-24T03:56:21;14.07;;;7.72;;
52854;SDS011;38719;51.418;7.286;2023-04-24T03:58:50;14.45;;;8.23;;
52854;SDS011;38719;51.418;7.286;2023-04-24T04:01:17;12.25;;;7.82;;
52854;SDS011;38719;51.418;7.286;2023-04-24T04:03:46;14.80;;;8.30;;
52854;SDS011;38719;51.418;7.286;2023-04-24T04:06:14;12.38;;;7.88;;
52854;SDS011;38719;51.418;7.286;2023-04-24T04:08:41;13.82;;;7.72;;
52854;SDS011;38719;51.418;7.286;2023-04-24T04:11:09;16.55;;;8.40;;
52854;SDS011;38719;51.418;7.286;2023-04-24T04:13:36;11.90;;;7.97;;
52854;SDS011;38719;51.418;7.286;2023-04-24T04:16:05;19.80;;;9.52;;
52854;SDS011;38719;51.418;7.286;2023-04-24T04:18:33;12.68;;;8.13;;
52854;SDS011;38719;51.418;7.286;2023-04-24T04:21:01;17.50;;;9.20;;
52854;SDS011;38719;51.418;7.286;2023-04-24T04:23:28;15.52;;;9.18;;
52854;SDS011;38719;51.418;7.286;2023-04-24T04:25:56;12.60;;;8.35;;
52854;SDS011;38719;51.418;7.286;2023-04-24T04:28:23;11.90;;;8.02;;
52854;SDS011;38719;51.418;7.286;2023-04-24T04:30:51;13.63;;;8.73;;
52854;SDS011;38719;51.418;7.286;2023-04-24T04:33:21;18.30;;;8.77;;
52854;SDS011;38719;51.418;7.286;2023-04-24T04:35:49;18.80;;;8.77;;
52854;SDS011;38719;51.418;7.286;2023-04-24T04:38:18;18.52;;;8.60;;
52854;SDS011;38719;51.418;7.286;2023-04-24T04:40:45;13.07;;;9.38;;
52854;SDS011;38719;51.418;7.286;2023-04-24T04:43:13;17.77;;;9.15;;
52854;SDS011;38719;51.418;7.286;2023-04-24T04:45:42;14.75;;;8.68;;
52854;SDS011;38719;51.418;7.286;2023-04-24T04:48:11;14.38;;;8.55;;
52854;SDS011;38719;51.418;7.286;2023-04-24T04:50:41;14.77;;;8.98;;
52854;SDS011;38719;51.418;7.286;2023-04-24T04:53:08;17.73;;;9.43;;
52854;SDS011;38719;51.418;7.286;2023-04-24T04:55:36;18.45;;;10.23;;
52854;SDS011;38719;51.418;7.286;2023-04-24T04:58:03;13.50;;;9.02;;
52854;SDS011;38719;51.418;7.286;2023-04-24T05:00:31;15.85;;;9.10;;
52854;SDS011;38719;51.418;7.286;2023-04-24T05:03:01;19.08;;;10.73;;
52854;SDS011;38719;51.418;7.286;2023-04-24T05:05:46;17.85;;;9.88;;
52854;SDS011;38719;51.418;7.286;2023-04-24T05:08:14;12.88;;;9.02;;
52854;SDS011;38719;51.418;7.286;2023-04-24T05:10:52;14.55;;;9.00;;
52854;SDS011;38719;51.418;7.286;2023-04-24T05:13:20;13.55;;;8.10;;
52854;SDS011;38719;51.418;7.286;2023-04-24T05:16:04;11.98;;;8.20;;
52854;SDS011;38719;51.418;7.286;2023-04-24T05:18:31;11.93;;;7.80;;
52854;SDS011;38719;51.418;7.286;2023-04-24T05:21:00;10.98;;;7.50;;
52854;SDS011;38719;51.418;7.286;2023-04-24T05:23:28;15.27;;;7.60;;
52854;SDS011;38719;51.418;7.286;2023-04-24T05:25:55;12.82;;;7.75;;
52854;SDS011;38719;51.418;7.286;2023-04-24T05:28:23;13.90;;;8.02;;
52854;SDS011;38719;51.418;7.286;2023-04-24T05:30:54;13.13;;;8.32;;
52854;SDS011;38719;51.418;7.286;2023-04-24T05:33:22;11.45;;;7.95;;
52854;SDS011;38719;51.418;7.286;2023-04-24T05:35:50;12.85;;;7.72;;
52854;SDS011;38719;51.418;7.286;2023-04-24T05:38:18;11.75;;;8.25;;
52854;SDS011;38719;51.418;7.286;2023-04-24T05:40:46;11.57;;;7.35;;
52854;SDS011;38719;51.418;7.286;2023-04-24T05:43:14;15.52;;;8.70;;
52854;SDS011;38719;51.418;7.286;2023-04-24T05:45:41;10.75;;;7.72;;
52854;SDS011;38719;51.418;7.286;2023-04-24T05:48:08;14.23;;;8.63;;
52854;SDS011;38719;51.418;7.286;2023-04-24T05:50:36;14.95;;;8.80;;
52854;SDS011;38719;51.418;7.286;2023-04-24T05:53:04;12.73;;;7.88;;
52854;SDS011;38719;51.418;7.286;2023-04-24T05:55:34;12.15;;;7.95;;
52854;SDS011;38719;51.418;7.286;2023-04-24T05:58:02;16.98;;;8.50;;
52854;SDS011;38719;51.418;7.286;2023-04-24T06:00:29;11.98;;;8.10;;
52854;SDS011;38719;51.418;7.286;2023-04-24T06:02:57;15.68;;;8.07;;
52854;SDS011;38719;51.418;7.286;2023-04-24T06:05:25;10.60;;;8.10;;
52854;SDS011;38719;51.418;7.286;2023-04-24T06:07:53;13.43;;;8.00;;
52854;SDS011;38719;51.418;7.286;2023-04-24T06:10:20;19.70;;;9.30;;
52854;SDS011;38719;51.418;7.286;2023-04-24T06:12:49;12.65;;;6.95;;
52854;SDS011;38719;51.418;7.286;2023-04-24T06:15:17;10.45;;;7.15;;
52854;SDS011;38719;51.418;7.286;2023-04-24T06:17:45;10.18;;;6.40;;
52854;SDS011;38719;51.418;7.286;2023-04-24T06:20:15;12.07;;;6.57;;
52854;SDS011;38719;51.418;7.286;2023-04-24T06:22:42;13.48;;;6.65;;
52854;SDS011;38719;51.418;7.286;2023-04-24T06:25:10;7.85;;;6.18;;
52854;SDS011;38719;51.418;7.286;2023-04-24T06:27:37;9.07;;;6.00;;
52854;SDS011;38719;51.418;7.286;2023-04-24T06:30:07;6.90;;;5.72;;
52854;SDS011;38719;51.418;7.286;2023-04-24T06:32:35;10.05;;;6.28;;
52854;SDS011;38719;51.418;7.286;2023-04-24T06:35:03;6.55;;;5.72;;
52854;SDS011;38719;51.418;7.286;2023-04-24T06:37:33;9.98;;;5.93;;
52854;SDS011;38719;51.418;7.286;2023-04-24T06:40:01;11.02;;;7.00;;
52854;SDS011;38719;51.418;7.286;2023-04-24T06:42:28;11.70;;;6.85;;
52854;SDS011;38719;51.418;7.286;2023-04-24T06:44:56;7.75;;;5.88;;
52854;SDS011;38719;51.418;7.286;2023-04-24T06:47:26;10.02;;;6.47;;
52854;SDS011;38719;51.418;7.286;2023-04-24T06:49:53;7.78;;;6.22;;
52854;SDS011;38719;51.418;7.286;2023-04-24T06:52:21;10.35;;;6.55;;
52854;SDS011;38719;51.418;7.286;2023-04-24T06:54:48;12.23;;;6.07;;
52854;SDS011;38719;51.418;7.286;2023-04-24T06:57:16;8.90;;;6.30;;
52854;SDS011;38719;51.418;7.286;2023-04-24T06:59:44;10.40;;;6.40;;
52854;SDS011;38719;51.418;7.286;2023-04-24T07:02:12;8.93;;;5.82;;
52854;SDS011;38719;51.418;7.286;2023-04-24T07:04:41;9.32;;;5.93;;
52854;SDS011;38719;51.418;7.286;2023-04-24T07:07:09;7.82;;;5.80;;
52854;SDS011;38719;51.418;7.286;2023-04-24T07:09:39;7.40;;;5.43;;
52854;SDS011;38719;51.418;7.286;2023-04-24T07:12:08;7.55;;;5.88;;
52854;SDS011;38719;51.418;7.286;2023-04-24T07:14:36;8.80;;;6.32;;
52854;SDS011;38719;51.418;7.286;2023-04-24T07:17:04;8.93;;;5.47;;
52854;SDS011;38719;51.418;7.286;2023-04-24T07:19:32;8.07;;;6.32;;
52854;SDS011;38719;51.418;7.286;2023-04-24T07:22:01;7.55;;;5.43;;
52854;SDS011;38719;51.418;7.286;2023-04-24T07:24:29;6.43;;;5.40;;
52854;SDS011;38719;51.418;7.286;2023-04-24T07:26:58;7.15;;;5.35;;
52854;SDS011;38719;51.418;7.286;2023-04-24T07:29:27;5.63;;;4.53;;
52854;SDS011;38719;51.418;7.286;2023-04-24T07:31:54;6.70;;;4.28;;
52854;SDS011;38719;51.418;7.286;2023-04-24T07:34:22;6.30;;;4.13;;
52854;SDS011;38719;51.418;7.286;2023-04-24T07:36:50;4.55;;;3.63;;
52854;SDS011;38719;51.418;7.286;2023-04-24T07:39:19;4.93;;;3.60;;
52854;SDS011;38719;51.418;7.286;2023-04-24T07:41:46;4.65;;;3.40;;
52854;SDS011;38719;51.418;7.286;2023-04-24T07:50:58;3.90;;;2.97;;
52854;SDS011;38719;51.418;7.286;2023-04-24T07:53:26;7.28;;;3.05;;
52854;SDS011;38719;51.418;7.286;2023-04-24T08:10:46;3.65;;;2.50;;
52854;SDS011;38719;51.418;7.286;2023-04-24T08:13:13;2.67;;;2.47;;
52854;SDS011;38719;51.418;7.286;2023-04-24T08:15:41;2.10;;;2.00;;
52854;SDS011;38719;51.418;7.286;2023-04-24T08:18:08;2.10;;;1.90;;
52854;SDS011;38719;51.418;7.286;2023-04-24T08:20:38;1.80;;;1.70;;
52854;SDS011;38719;51.418;7.286;2023-04-24T08:23:05;2.00;;;1.90;;
52854;SDS011;38719;51.418;7.286;2023-04-24T08:25:33;1.85;;;1.75;;
52854;SDS011;38719;51.418;7.286;2023-04-24T08:28:03;1.80;;;1.70;;
52854;SDS011;38719;51.418;7.286;2023-04-24T08:30:32;1.60;;;1.50;;
52854;SDS011;38719;51.418;7.286;2023-04-24T08:33:00;1.63;;;1.52;;
52854;SDS011;38719;51.418;7.286;2023-04-24T08:35:27;1.50;;;1.40;;
52854;SDS011;38719;51.418;7.286;2023-04-24T08:37:55;1.65;;;1.55;;
52854;SDS011;38719;51.418;7.286;2023-04-24T08:40:28;1.65;;;1.55;;
52854;SDS011;38719;51.418;7.286;2023-04-24T08:42:56;5.20;;;1.60;;
52854;SDS011;38719;51.418;7.286;2023-04-24T08:45:26;1.85;;;1.73;;
52854;SDS011;38719;51.418;7.286;2023-04-24T08:47:54;1.80;;;1.70;;
52854;SDS011;38719;51.418;7.286;2023-04-24T08:50:22;1.83;;;1.73;;
52854;SDS011;38719;51.418;7.286;2023-04-24T08:52:50;1.83;;;1.67;;
52854;SDS011;38719;51.418;7.286;2023-04-24T08:55:19;2.03;;;1.90;;
52854;SDS011;38719;51.418;7.286;2023-04-24T08:57:50;1.77;;;1.67;;
52854;SDS011;38719;51.418;7.286;2023-04-24T09:00:20;1.83;;;1.73;;
52854;SDS011;38719;51.418;7.286;2023-04-24T09:02:49;2.58;;;1.63;;
52854;SDS011;38719;51.418;7.286;2023-04-24T09:05:18;1.75;;;1.65;;
52854;SDS011;38719;51.418;7.286;2023-04-24T09:07:49;5.32;;;1.90;;
52854;SDS011;38719;51.418;7.286;2023-04-24T09:10:21;2.03;;;1.90;;
52854;SDS011;38719;51.418;7.286;2023-04-24T09:12:49;2.15;;;2.00;;
52854;SDS011;38719;51.418;7.286;2023-04-24T09:15:18;2.20;;;2.00;;
52854;SDS011;38719;51.418;7.286;2023-04-24T09:17:46;2.70;;;2.10;;
52854;SDS011;38719;51.418;7.286;2023-04-24T09:20:16;3.15;;;2.22;;
52854;SDS011;38719;51.418;7.286;2023-04-24T09:22:43;6.13;;;2.60;;
52854;SDS011;38719;51.418;7.286;2023-04-24T09:25:12;2.47;;;2.10;;
52854;SDS011;38719;51.418;7.286;2023-04-24T09:27:43;8.13;;;2.50;;
52854;SDS011;38719;51.418;7.286;2023-04-24T09:30:12;2.88;;;2.20;;
52854;SDS011;38719;51.418;7.286;2023-04-24T09:32:40;2.67;;;2.30;;
52854;SDS011;38719;51.418;7.286;2023-04-24T09:35:09;3.25;;;2.30;;
52854;SDS011;38719;51.418;7.286;2023-04-24T09:37:39;2.40;;;2.20;;
52854;SDS011;38719;51.418;7.286;2023-04-24T09:40:12;2.60;;;2.40;;
52854;SDS011;38719;51.418;7.286;2023-04-24T09:42:43;2.88;;;2.35;;
52854;SDS011;38719;51.418;7.286;2023-04-24T09:45:12;3.33;;;2.50;;
52854;SDS011;38719;51.418;7.286;2023-04-24T09:47:41;2.67;;;2.47;;
52854;SDS011;38719;51.418;7.286;2023-04-24T09:50:10;5.15;;;2.60;;
52854;SDS011;38719;51.418;7.286;2023-04-24T09:52:44;4.93;;;2.92;;
52854;SDS011;38719;51.418;7.286;2023-04-24T09:55:19;5.22;;;3.35;;
52854;SDS011;38719;51.418;7.286;2023-04-24T09:57:48;4.78;;;3.67;;
52854;SDS011;38719;51.418;7.286;2023-04-24T10:00:23;5.53;;;3.80;;
52854;SDS011;38719;51.418;7.286;2023-04-24T10:02:56;5.38;;;4.38;;
52854;SDS011;38719;51.418;7.286;2023-04-24T10:05:25;7.38;;;4.40;;
52854;SDS011;38719;51.418;7.286;2023-04-24T10:08:01;4.78;;;3.92;;
52854;SDS011;38719;51.418;7.286;2023-04-24T10:10:30;5.55;;;3.47;;
52854;SDS011;38719;51.418;7.286;2023-04-24T10:12:59;5.95;;;3.65;;
52854;SDS011;38719;51.418;7.286;2023-04-24T10:15:26;3.80;;;3.38;;
52854;SDS011;38719;51.418;7.286;2023-04-24T10:17:54;9.23;;;3.63;;
52854;SDS011;38719;51.418;7.286;2023-04-24T10:20:25;3.92;;;3.17;;
52854;SDS011;38719;51.418;7.286;2023-04-24T10:22:55;4.75;;;3.28;;
52854;SDS011;38719;51.418;7.286;2023-04-24T10:25:26;7.28;;;3.50;;
52854;SDS011;38719;51.418;7.286;2023-04-24T10:27:54;4.60;;;3.20;;
52854;SDS011;38719;51.418;7.286;2023-04-24T10:30:25;4.10;;;3.20;;
52854;SDS011;38719;51.418;7.286;2023-04-24T10:32:55;6.45;;;3.75;;
52854;SDS011;38719;51.418;7.286;2023-04-24T10:35:23;4.72;;;3.25;;
52854;SDS011;38719;51.418;7.286;2023-04-24T10:37:54;8.95;;;3.60;;
52854;SDS011;38719;51.418;7.286;2023-04-24T10:40:27;4.95;;;3.53;;
52854;SDS011;38719;51.418;7.286;2023-04-24T10:42:57;11.02;;;4.00;;
52854;SDS011;38719;51.418;7.286;2023-04-24T10:45:25;6.20;;;3.90;;
52854;SDS011;38719;51.418;7.286;2023-04-24T10:47:53;7.10;;;4.05;;
52854;SDS011;38719;51.418;7.286;2023-04-24T10:50:25;8.80;;;4.45;;
52854;SDS011;38719;51.418;7.286;2023-04-24T10:52:55;6.90;;;3.90;;
52854;SDS011;38719;51.418;7.286;2023-04-24T10:55:40;9.05;;;4.93;;
52854;SDS011;38719;51.418;7.286;2023-04-24T10:58:09;10.70;;;4.45;;
52854;SDS011;38719;51.418;7.286;2023-04-24T11:00:37;9.60;;;4.70;;
52854;SDS011;38719;51.418;7.286;2023-04-24T11:03:06;7.25;;;4.40;;
52854;SDS011;38719;51.418;7.286;2023-04-24T11:05:50;12.13;;;4.93;;
52854;SDS011;38719;51.418;7.286;2023-04-24T11:10:57;8.35;;;5.05;;
52854;SDS011;38719;51.418;7.286;2023-04-24T11:13:27;10.03;;;5.27;;
52854;SDS011;38719;51.418;7.286;2023-04-24T11:16:15;5.85;;;4.40;;
52854;SDS011;38719;51.418;7.286;2023-04-24T11:18:50;8.93;;;4.80;;
52854;SDS011;38719;51.418;7.286;2023-04-24T11:21:20;8.00;;;4.75;;
52854;SDS011;38719;51.418;7.286;2023-04-24T11:23:49;8.52;;;4.75;;
52854;SDS011;38719;51.418;7.286;2023-04-24T11:26:19;10.05;;;4.60;;
52854;SDS011;38719;51.418;7.286;2023-04-24T11:28:50;7.22;;;4.47;;
52854;SDS011;38719;51.418;7.286;2023-04-24T11:34:16;10.57;;;4.35;;
52854;SDS011;38719;51.418;7.286;2023-04-24T11:36:44;13.10;;;4.78;;
52854;SDS011;38719;51.418;7.286;2023-04-24T11:39:13;10.90;;;5.07;;
52854;SDS011;38719;51.418;7.286;2023-04-24T11:41:43;10.65;;;5.05;;
52854;SDS011;38719;51.418;7.286;2023-04-24T11:44:10;14.52;;;5.32;;
52854;SDS011;38719;51.418;7.286;2023-04-24T11:46:38;9.82;;;5.45;;
52854;SDS011;38719;51.418;7.286;2023-04-24T11:49:06;12.90;;;4.97;;
52854;SDS011;38719;51.418;7.286;2023-04-24T11:51:34;14.35;;;5.30;;
52854;SDS011;38719;51.418;7.286;2023-04-24T11:54:17;16.73;;;5.57;;
52854;SDS011;38719;51.418;7.286;2023-04-24T11:56:47;12.85;;;5.43;;
52854;SDS011;38719;51.418;7.286;2023-04-24T11:59:15;17.25;;;5.55;;
52854;SDS011;38719;51.418;7.286;2023-04-24T12:01:43;11.73;;;6.20;;
52854;SDS011;38719;51.418;7.286;2023-04-24T12:04:11;15.18;;;5.95;;
52854;SDS011;38719;51.418;7.286;2023-04-24T12:06:39;16.13;;;5.05;;
52854;SDS011;38719;51.418;7.286;2023-04-24T12:09:06;11.63;;;5.22;;
52854;SDS011;38719;51.418;7.286;2023-04-24T12:11:53;11.35;;;5.07;;
52854;SDS011;38719;51.418;7.286;2023-04-24T12:14:21;10.43;;;4.80;;
52854;SDS011;38719;51.418;7.286;2023-04-24T12:16:49;9.40;;;4.53;;
52854;SDS011;38719;51.418;7.286;2023-04-24T12:19:18;8.80;;;4.30;;
52854;SDS011;38719;51.418;7.286;2023-04-24T12:21:58;8.23;;;4.20;;
52854;SDS011;38719;51.418;7.286;2023-04-24T12:24:26;10.60;;;4.75;;
52854;SDS011;38719;51.418;7.286;2023-04-24T12:26:55;5.63;;;3.50;;
52854;SDS011;38719;51.418;7.286;2023-04-24T12:29:24;9.77;;;4.05;;
52854;SDS011;38719;51.418;7.286;2023-04-24T12:31:52;13.05;;;4.68;;
52854;SDS011;38719;51.418;7.286;2023-04-24T12:34:20;7.93;;;4.20;;
52854;SDS011;38719;51.418;7.286;2023-04-24T12:36:48;8.98;;;4.30;;
52854;SDS011;38719;51.418;7.286;2023-04-24T12:39:15;11.35;;;4.97;;
52854;SDS011;38719;51.418;7.286;2023-04-24T12:41:57;12.38;;;4.55;;
52854;SDS011;38719;51.418;7.286;2023-04-24T12:44:29;11.77;;;4.72;;
52854;SDS011;38719;51.418;7.286;2023-04-24T12:46:57;7.28;;;4.22;;
52854;SDS011;38719;51.418;7.286;2023-04-24T12:49:25;10.77;;;4.43;;
52854;SDS011;38719;51.418;7.286;2023-04-24T12:51:52;13.98;;;5.05;;
52854;SDS011;38719;51.418;7.286;2023-04-24T12:54:20;7.72;;;4.18;;
52854;SDS011;38719;51.418;7.286;2023-04-24T12:56:48;5.05;;;3.55;;
52854;SDS011;38719;51.418;7.286;2023-04-24T12:59:17;6.22;;;3.35;;
52854;SDS011;38719;51.418;7.286;2023-04-24T13:01:44;6.70;;;3.67;;
52854;SDS011;38719;51.418;7.286;2023-04-24T13:04:12;8.98;;;4.57;;
52854;SDS011;38719;51.418;7.286;2023-04-24T13:06:40;5.30;;;3.60;;
52854;SDS011;38719;51.418;7.286;2023-04-24T13:09:07;8.13;;;3.80;;
52854;SDS011;38719;51.418;7.286;2023-04-24T13:11:35;9.90;;;3.55;;
52854;SDS011;38719;51.418;7.286;2023-04-24T13:14:03;5.05;;;3.50;;
52854;SDS011;38719;51.418;7.286;2023-04-24T13:16:32;9.27;;;3.50;;
52854;SDS011;38719;51.418;7.286;2023-04-24T13:19:00;4.88;;;3.50;;
52854;SDS011;38719;51.418;7.286;2023-04-24T13:21:28;5.85;;;3.67;;
52854;SDS011;38719;51.418;7.286;2023-04-24T13:23:56;7.95;;;3.10;;
52854;SDS011;38719;51.418;7.286;2023-04-24T13:26:24;8.23;;;3.58;;
52854;SDS011;38719;51.418;7.286;2023-04-24T13:28:51;6.47;;;3.58;;
52854;SDS011;38719;51.418;7.286;2023-04-24T13:31:18;4.20;;;3.05;;
52854;SDS011;38719;51.418;7.286;2023-04-24T13:33:47;8.65;;;3.42;;
52854;SDS011;38719;51.418;7.286;2023-04-24T13:36:15;3.75;;;3.10;;
52854;SDS011;38719;51.418;7.286;2023-04-24T13:38:44;3.05;;;2.50;;
52854;SDS011;38719;51.418;7.286;2023-04-24T13:41:11;4.13;;;2.90;;
52854;SDS011;38719;51.418;7.286;2023-04-24T13:43:39;3.08;;;2.70;;
52854;SDS011;38719;51.418;7.286;2023-04-24T13:46:08;9.27;;;2.67;;
52854;SDS011;38719;51.418;7.286;2023-04-24T13:48:35;5.72;;;2.85;;
52854;SDS011;38719;51.418;7.286;2023-04-24T13:51:04;3.78;;;2.80;;
52854;SDS011;38719;51.418;7.286;2023-04-24T13:53:32;5.72;;;2.95;;
52854;SDS011;38719;51.418;7.286;2023-04-24T13:56:02;6.07;;;2.80;;
52854;SDS011;38719;51.418;7.286;2023-04-24T13:58:29;3.25;;;2.65;;
52854;SDS011;38719;51.418;7.286;2023-04-24T14:00:56;3.97;;;2.70;;
52854;SDS011;38719;51.418;7.286;2023-04-24T14:03:24;3.13;;;2.53;;
52854;SDS011;38719;51.418;7.286;2023-04-24T14:05:52;4.47;;;2.30;;
52854;SDS011;38719;51.418;7.286;2023-04-24T14:08:21;6.85;;;2.78;;
52854;SDS011;38719;51.418;7.286;2023-04-24T14:10:49;4.93;;;2.30;;
52854;SDS011;38719;51.418;7.286;2023-04-24T14:13:17;4.63;;;2.83;;
52854;SDS011;38719;51.418;7.286;2023-04-24T14:15:44;5.20;;;2.38;;
52854;SDS011;38719;51.418;7.286;2023-04-24T14:18:12;5.45;;;2.47;;
52854;SDS011;38719;51.418;7.286;2023-04-24T14:20:40;6.28;;;2.28;;
52854;SDS011;38719;51.418;7.286;2023-04-24T14:23:08;3.38;;;2.42;;
52854;SDS011;38719;51.418;7.286;2023-04-24T14:25:37;2.83;;;2.10;;
52854;SDS011;38719;51.418;7.286;2023-04-24T14:28:05;6.10;;;2.30;;
52854;SDS011;38719;51.418;7.286;2023-04-24T14:30:33;2.60;;;2.20;;
52854;SDS011;38719;51.418;7.286;2023-04-24T14:33:03;4.72;;;2.85;;
52854;SDS011;38719;51.418;7.286;2023-04-24T14:35:30;6.47;;;2.80;;
52854;SDS011;38719;51.418;7.286;2023-04-24T14:38:00;7.82;;;2.92;;
52854;SDS011;38719;51.418;7.286;2023-04-24T14:40:28;5.07;;;2.80;;
52854;SDS011;38719;51.418;7.286;2023-04-24T14:43:17;5.60;;;3.03;;
52854;SDS011;38719;51.418;7.286;2023-04-24T14:45:44;5.55;;;3.38;;
52854;SDS011;38719;51.418;7.286;2023-04-24T14:48:12;5.55;;;3.10;;
52854;SDS011;38719;51.418;7.286;2023-04-24T14:50:39;6.05;;;3.00;;
52854;SDS011;38719;51.418;7.286;2023-04-24T14:53:07;4.55;;;2.65;;
52854;SDS011;38719;51.418;7.286;2023-04-24T14:55:34;4.72;;;2.78;;
52854;SDS011;38719;51.418;7.286;2023-04-24T14:58:02;8.20;;;2.80;;
52854;SDS011;38719;51.418;7.286;2023-04-24T15:00:31;7.53;;;2.90;;
52854;SDS011;38719;51.418;7.286;2023-04-24T15:03:00;2.95;;;2.30;;
52854;SDS011;38719;51.418;7.286;2023-04-24T15:05:28;6.60;;;2.60;;
52854;SDS011;38719;51.418;7.286;2023-04-24T15:07:56;5.45;;;2.50;;
52854;SDS011;38719;51.418;7.286;2023-04-24T15:10:24;4.15;;;2.60;;
52854;SDS011;38719;51.418;7.286;2023-04-24T15:12:51;4.05;;;2.20;;
52854;SDS011;38719;51.418;7.286;2023-04-24T15:15:19;3.10;;;2.50;;
52854;SDS011;38719;51.418;7.286;2023-04-24T15:17:48;4.80;;;2.63;;
52854;SDS011;38719;51.418;7.286;2023-04-24T15:20:16;5.13;;;2.95;;